createdAt,value
2018-03-03T00:00:12.590Z,1002.69
2018-03-03T00:01:12.606Z,1002.73
2018-03-03T00:02:12.590Z,1002.74
2018-03-03T00:03:12.603Z,1002.68
2018-03-03T00:04:12.601Z,1002.62
2018-03-03T00:05:12.610Z,1002.62
2018-03-03T00:06:12.634Z,1002.61
2018-03-03T00:07:12.635Z,1002.58
2018-03-03T00:08:12.617Z,1002.67
2018-03-03T00:09:12.641Z,1002.63
2018-03-03T00:10:12.630Z,1002.68
2018-03-03T00:11:12.634Z,1002.64
2018-03-03T00:12:12.673Z,1002.68
2018-03-03T00:13:12.644Z,1002.62
2018-03-03T00:14:12.645Z,1002.59
2018-03-03T00:15:12.644Z,1002.57
2018-03-03T00:16:12.830Z,1002.51
2018-03-03T00:17:12.687Z,1002.55
2018-03-03T00:18:12.665Z,1002.52
2018-03-03T00:19:12.659Z,1002.46
2018-03-03T00:20:12.665Z,1002.49
2018-03-03T00:21:12.684Z,1002.49
2018-03-03T00:22:12.693Z,1002.43
2018-03-03T00:23:12.684Z,1002.4
2018-03-03T00:24:12.686Z,1002.31
2018-03-03T00:25:12.688Z,1002.28
2018-03-03T00:26:12.685Z,1002.31
2018-03-03T00:27:12.702Z,1002.36
2018-03-03T00:28:12.678Z,1002.35
2018-03-03T00:29:12.685Z,1002.34
2018-03-03T00:30:12.687Z,1002.35
2018-03-03T00:31:12.697Z,1002.38
2018-03-03T00:32:12.726Z,1002.45
2018-03-03T00:33:12.708Z,1002.42
2018-03-03T00:34:12.705Z,1002.42
2018-03-03T00:35:12.698Z,1002.41
2018-03-03T00:36:12.700Z,1002.38
2018-03-03T00:37:12.709Z,1002.31
2018-03-03T00:38:12.710Z,1002.29
2018-03-03T00:39:12.708Z,1002.3
2018-03-03T00:40:12.711Z,1002.3
2018-03-03T00:41:12.721Z,1002.35
2018-03-03T00:42:12.726Z,1002.39
2018-03-03T00:43:12.760Z,1002.38
2018-03-03T00:44:12.746Z,1002.37
2018-03-03T00:45:12.811Z,1002.37
2018-03-03T00:46:12.744Z,1002.4
2018-03-03T00:47:12.748Z,1002.4
2018-03-03T00:48:12.751Z,1002.35
2018-03-03T00:49:12.757Z,1002.41
2018-03-03T00:50:12.780Z,1002.36
2018-03-03T00:51:12.763Z,1002.37
2018-03-03T00:52:12.766Z,1002.36
2018-03-03T00:53:12.774Z,1002.32
2018-03-03T00:54:12.770Z,1002.3
2018-03-03T00:55:12.794Z,1002.29
2018-03-03T00:56:12.771Z,1002.26
2018-03-03T00:57:12.793Z,1002.26
2018-03-03T00:58:12.781Z,1002.27
2018-03-03T00:59:12.792Z,1002.27
2018-03-03T01:00:13.058Z,1002.29
2018-03-03T01:01:12.798Z,1002.26
2018-03-03T01:02:12.832Z,1002.29
2018-03-03T01:03:12.816Z,1002.28
2018-03-03T01:04:12.811Z,1002.33
2018-03-03T01:05:12.834Z,1002.33
2018-03-03T01:06:12.810Z,1002.36
2018-03-03T01:07:12.837Z,1002.31
2018-03-03T01:08:12.822Z,1002.32
2018-03-03T01:09:12.830Z,1002.29
2018-03-03T01:10:12.836Z,1002.28
2018-03-03T01:11:12.862Z,1002.25
2018-03-03T01:12:12.833Z,1002.23
2018-03-03T01:13:12.842Z,1002.23
2018-03-03T01:14:12.846Z,1002.23
2018-03-03T01:15:12.848Z,1002.19
2018-03-03T01:16:12.860Z,1002.19
2018-03-03T01:17:12.865Z,1002.14
2018-03-03T01:18:12.847Z,1002.15
2018-03-03T01:19:12.854Z,1002.17
2018-03-03T01:20:12.854Z,1002.2
2018-03-03T01:21:12.852Z,1002.21
2018-03-03T01:23:12.872Z,1002.16
2018-03-03T01:24:12.857Z,1002.22
2018-03-03T01:25:12.865Z,1002.25
2018-03-03T01:26:12.870Z,1002.25
2018-03-03T01:27:12.887Z,1002.27
2018-03-03T01:28:12.887Z,1002.25
2018-03-03T01:29:12.880Z,1002.28
2018-03-03T01:30:12.909Z,1002.18
2018-03-03T01:31:12.919Z,1002.16
2018-03-03T01:32:12.925Z,1002.12
2018-03-03T01:33:12.905Z,1002.11
2018-03-03T01:34:12.901Z,1002.08
2018-03-03T01:35:12.901Z,1002.12
2018-03-03T01:36:12.895Z,1002.1
2018-03-03T01:37:12.922Z,1002.14
2018-03-03T01:38:12.929Z,1002.14
2018-03-03T01:40:12.989Z,1002.18
2018-03-03T01:41:12.916Z,1002.17
2018-03-03T01:42:12.923Z,1002.14
2018-03-03T01:43:12.930Z,1002.19
2018-03-03T01:44:12.964Z,1002.2
2018-03-03T01:45:12.932Z,1002.19
2018-03-03T01:46:12.941Z,1002.2
2018-03-03T01:47:12.949Z,1002.23
2018-03-03T01:48:12.945Z,1002.24
2018-03-03T01:49:12.945Z,1002.2
2018-03-03T01:50:12.946Z,1002.14
2018-03-03T01:51:12.941Z,1002.18
2018-03-03T01:52:12.946Z,1002.16
2018-03-03T01:53:12.957Z,1002.14
2018-03-03T01:54:12.980Z,1002.12
2018-03-03T01:55:12.963Z,1002.16
2018-03-03T01:56:12.969Z,1002.14
2018-03-03T01:57:12.971Z,1002.1
2018-03-03T01:58:12.961Z,1002.1
2018-03-03T01:59:13.004Z,1002.1
2018-03-03T02:00:12.973Z,1002.08
2018-03-03T02:01:12.973Z,1002.07
2018-03-03T02:02:12.984Z,1002.04
2018-03-03T02:03:12.984Z,1002.04
2018-03-03T02:04:13.000Z,1002
2018-03-03T02:05:12.997Z,1001.99
2018-03-03T02:06:12.976Z,1002
2018-03-03T02:07:12.982Z,1001.96
2018-03-03T02:08:12.993Z,1001.99
2018-03-03T02:09:13.012Z,1001.95
2018-03-03T02:10:12.999Z,1001.93
2018-03-03T02:11:12.999Z,1001.97
2018-03-03T02:12:13.012Z,1001.93
2018-03-03T02:13:13.021Z,1001.93
2018-03-03T02:14:13.028Z,1001.93
2018-03-03T02:15:13.023Z,1001.87
2018-03-03T02:16:13.024Z,1001.83
2018-03-03T02:17:13.037Z,1001.79
2018-03-03T02:18:13.033Z,1001.74
2018-03-03T02:19:13.031Z,1001.73
2018-03-03T02:20:13.027Z,1001.75
2018-03-03T02:21:13.051Z,1001.72
2018-03-03T02:22:13.039Z,1001.71
2018-03-03T02:23:13.038Z,1001.75
2018-03-03T02:24:13.047Z,1001.76
2018-03-03T02:26:19.331Z,1001.8
2018-03-03T02:27:13.059Z,1001.78
2018-03-03T02:28:13.052Z,1001.81
2018-03-03T02:29:13.058Z,1001.8
2018-03-03T02:30:13.065Z,1001.79
2018-03-03T02:32:19.224Z,1001.7
2018-03-03T02:33:13.098Z,1001.65
2018-03-03T02:34:13.108Z,1001.57
2018-03-03T02:35:13.068Z,1001.58
2018-03-03T02:36:13.075Z,1001.47
2018-03-03T02:37:13.102Z,1001.48
2018-03-03T02:38:13.088Z,1001.47
2018-03-03T02:39:13.108Z,1001.43
2018-03-03T02:40:13.091Z,1001.44
2018-03-03T02:41:13.096Z,1001.48
2018-03-03T02:42:13.127Z,1001.54
2018-03-03T02:43:13.100Z,1001.63
2018-03-03T02:44:13.098Z,1001.63
2018-03-03T02:45:13.099Z,1001.63
2018-03-03T02:46:13.178Z,1001.54
2018-03-03T02:47:13.386Z,1001.49
2018-03-03T02:48:13.107Z,1001.43
2018-03-03T02:49:20.080Z,1001.47
2018-03-03T02:50:13.101Z,1001.42
2018-03-03T02:51:13.101Z,1001.46
2018-03-03T02:52:13.133Z,1001.5
2018-03-03T02:53:13.114Z,1001.54
2018-03-03T02:54:13.178Z,1001.56
2018-03-03T02:55:13.112Z,1001.53
2018-03-03T02:56:13.118Z,1001.54
2018-03-03T02:57:13.124Z,1001.52
2018-03-03T02:58:13.404Z,1001.54
2018-03-03T02:59:13.130Z,1001.53
2018-03-03T03:00:13.136Z,1001.52
2018-03-03T03:01:13.141Z,1001.52
2018-03-03T03:02:13.141Z,1001.5
2018-03-03T03:03:13.157Z,1001.53
2018-03-03T03:04:13.153Z,1001.47
2018-03-03T03:05:13.147Z,1001.44
2018-03-03T03:06:13.148Z,1001.39
2018-03-03T03:07:13.150Z,1001.37
2018-03-03T03:08:13.154Z,1001.4
2018-03-03T03:09:13.154Z,1001.35
2018-03-03T03:10:13.184Z,1001.34
2018-03-03T03:11:13.156Z,1001.34
2018-03-03T03:12:13.165Z,1001.26
2018-03-03T03:13:13.169Z,1001.27
2018-03-03T03:14:13.176Z,1001.26
2018-03-03T03:15:13.174Z,1001.23
2018-03-03T03:16:13.179Z,1001.24
2018-03-03T03:17:13.182Z,1001.23
2018-03-03T03:18:13.184Z,1001.21
2018-03-03T03:19:13.214Z,1001.23
2018-03-03T03:20:13.185Z,1001.22
2018-03-03T03:21:13.189Z,1001.2
2018-03-03T03:22:13.193Z,1001.26
2018-03-03T03:23:13.199Z,1001.24
2018-03-03T03:24:13.227Z,1001.28
2018-03-03T03:25:13.193Z,1001.21
2018-03-03T03:26:13.203Z,1001.27
2018-03-03T03:27:13.203Z,1001.3
2018-03-03T03:29:13.342Z,1001.34
2018-03-03T03:30:13.224Z,1001.31
2018-03-03T03:31:13.247Z,1001.36
2018-03-03T03:32:13.225Z,1001.33
2018-03-03T03:33:13.228Z,1001.3
2018-03-03T03:34:13.235Z,1001.27
2018-03-03T03:35:13.239Z,1001.31
2018-03-03T03:36:13.267Z,1001.26
2018-03-03T03:37:13.245Z,1001.28
2018-03-03T03:38:13.253Z,1001.29
2018-03-03T03:39:13.252Z,1001.24
2018-03-03T03:40:13.264Z,1001.24
2018-03-03T03:41:13.278Z,1001.16
2018-03-03T03:42:13.308Z,1001.1
2018-03-03T03:43:13.271Z,1001.05
2018-03-03T03:44:13.279Z,1001.04
2018-03-03T03:45:13.271Z,1001.08
2018-03-03T03:46:13.323Z,1001.1
2018-03-03T03:47:13.306Z,1001.13
2018-03-03T03:48:13.285Z,1001.09
2018-03-03T03:49:13.283Z,1001.08
2018-03-03T03:50:13.294Z,1001.05
2018-03-03T03:51:13.289Z,1001.03
2018-03-03T03:52:13.296Z,1000.99
2018-03-03T03:53:13.315Z,1001.02
2018-03-03T03:54:13.295Z,1001
2018-03-03T03:55:13.449Z,1000.99
2018-03-03T03:56:13.305Z,1000.96
2018-03-03T03:57:13.306Z,1000.92
2018-03-03T03:58:13.336Z,1000.88
2018-03-03T03:59:13.307Z,1000.8
2018-03-03T04:00:13.305Z,1000.81
2018-03-03T04:01:13.320Z,1000.8
2018-03-03T04:02:13.315Z,1000.79
2018-03-03T04:03:13.322Z,1000.76
2018-03-03T04:04:13.400Z,1000.73
2018-03-03T04:05:13.330Z,1000.71
2018-03-03T04:06:13.339Z,1000.76
2018-03-03T04:07:13.339Z,1000.68
2018-03-03T04:08:13.336Z,1000.72
2018-03-03T04:09:13.360Z,1000.71
2018-03-03T04:10:13.351Z,1000.71
2018-03-03T04:11:13.351Z,1000.67
2018-03-03T04:12:13.351Z,1000.72
2018-03-03T04:13:13.358Z,1000.69
2018-03-03T04:14:13.366Z,1000.67
2018-03-03T04:15:13.369Z,1000.69
2018-03-03T04:16:13.376Z,1000.68
2018-03-03T04:17:13.381Z,1000.67
2018-03-03T04:18:13.387Z,1000.65
2018-03-03T04:19:13.386Z,1000.64
2018-03-03T04:20:13.390Z,1000.65
2018-03-03T04:21:13.412Z,1000.62
2018-03-03T04:22:13.399Z,1000.59
2018-03-03T04:23:13.409Z,1000.58
2018-03-03T04:24:13.418Z,1000.55
2018-03-03T04:25:13.406Z,1000.53
2018-03-03T04:26:13.405Z,1000.53
2018-03-03T04:27:13.422Z,1000.54
2018-03-03T04:28:13.429Z,1000.54
2018-03-03T04:29:13.431Z,1000.52
2018-03-03T04:30:13.410Z,1000.58
2018-03-03T04:31:13.414Z,1000.54
2018-03-03T04:32:13.426Z,1000.5
2018-03-03T04:33:13.420Z,1000.44
2018-03-03T04:34:13.468Z,1000.39
2018-03-03T04:35:13.453Z,1000.4
2018-03-03T04:36:13.441Z,1000.42
2018-03-03T04:37:13.440Z,1000.43
2018-03-03T04:38:13.444Z,1000.47
2018-03-03T04:39:13.469Z,1000.48
2018-03-03T04:40:13.456Z,1000.5
2018-03-03T04:41:13.468Z,1000.47
2018-03-03T04:42:13.460Z,1000.48
2018-03-03T04:44:13.503Z,1000.57
2018-03-03T04:45:13.475Z,1000.57
2018-03-03T04:46:13.486Z,1000.5
2018-03-03T04:47:13.484Z,1000.49
2018-03-03T04:48:13.985Z,1000.48
2018-03-03T04:49:13.579Z,1000.47
2018-03-03T04:50:13.495Z,1000.44
2018-03-03T04:51:13.508Z,1000.45
2018-03-03T04:52:13.500Z,1000.46
2018-03-03T04:53:13.510Z,1000.39
2018-03-03T04:54:13.514Z,1000.44
2018-03-03T04:55:13.498Z,1000.4
2018-03-03T04:56:13.501Z,1000.43
2018-03-03T04:57:13.508Z,1000.44
2018-03-03T04:58:13.512Z,1000.48
2018-03-03T04:59:13.512Z,1000.37
2018-03-03T05:00:13.508Z,1000.37
2018-03-03T05:01:13.592Z,1000.35
2018-03-03T05:02:13.576Z,1000.33
2018-03-03T05:03:13.521Z,1000.32
2018-03-03T05:04:13.525Z,1000.31
2018-03-03T05:05:13.523Z,1000.35
2018-03-03T05:06:13.531Z,1000.36
2018-03-03T05:07:13.523Z,1000.36
2018-03-03T05:08:13.530Z,1000.37
2018-03-03T05:09:13.527Z,1000.32
2018-03-03T05:10:13.527Z,1000.29
2018-03-03T05:12:13.612Z,1000.3
2018-03-03T05:13:13.536Z,1000.29
2018-03-03T05:14:13.618Z,1000.27
2018-03-03T05:15:13.540Z,1000.28
2018-03-03T05:16:13.533Z,1000.22
2018-03-03T05:17:13.542Z,1000.27
2018-03-03T05:18:13.946Z,1000.22
2018-03-03T05:19:13.555Z,1000.24
2018-03-03T05:20:13.560Z,1000.22
2018-03-03T05:21:13.565Z,1000.22
2018-03-03T05:22:13.577Z,1000.27
2018-03-03T05:23:13.572Z,1000.27
2018-03-03T05:24:13.576Z,1000.24
2018-03-03T05:25:13.588Z,1000.21
2018-03-03T05:26:13.597Z,1000.17
2018-03-03T05:27:13.590Z,1000.15
2018-03-03T05:28:13.595Z,1000.15
2018-03-03T05:29:13.603Z,1000.06
2018-03-03T05:30:13.608Z,1000.06
2018-03-03T05:31:13.621Z,1000.03
2018-03-03T05:32:13.636Z,999.97
2018-03-03T05:33:13.634Z,999.94
2018-03-03T05:34:13.628Z,999.89
2018-03-03T05:35:13.630Z,999.91
2018-03-03T05:36:13.648Z,999.92
2018-03-03T05:37:13.635Z,999.91
2018-03-03T05:38:13.627Z,999.91
2018-03-03T05:39:13.639Z,999.9
2018-03-03T05:40:13.641Z,999.91
2018-03-03T05:41:13.634Z,999.92
2018-03-03T05:42:13.666Z,999.9
2018-03-03T05:43:13.648Z,999.92
2018-03-03T05:44:13.641Z,999.93
2018-03-03T05:45:13.646Z,999.97
2018-03-03T05:46:13.644Z,999.94
2018-03-03T05:47:13.674Z,999.87
2018-03-03T05:48:13.658Z,999.89
2018-03-03T05:49:13.652Z,999.88
2018-03-03T05:50:13.652Z,999.9
2018-03-03T05:51:13.661Z,999.9
2018-03-03T05:52:13.684Z,999.88
2018-03-03T05:53:13.669Z,999.92
2018-03-03T05:54:13.669Z,999.91
2018-03-03T05:55:13.668Z,999.91
2018-03-03T05:56:13.675Z,999.9
2018-03-03T05:57:13.683Z,999.85
2018-03-03T05:58:13.697Z,999.87
2018-03-03T05:59:13.733Z,999.93
2018-03-03T06:00:13.666Z,999.91
2018-03-03T06:01:13.677Z,999.92
2018-03-03T06:02:13.673Z,999.93
2018-03-03T06:03:13.680Z,999.94
2018-03-03T06:04:13.688Z,999.89
2018-03-03T06:05:13.692Z,999.89
2018-03-03T06:06:13.698Z,999.89
2018-03-03T06:07:13.734Z,999.88
2018-03-03T06:08:13.701Z,999.91
2018-03-03T06:09:13.719Z,999.89
2018-03-03T06:10:13.718Z,999.91
2018-03-03T06:11:13.727Z,999.9
2018-03-03T06:12:13.741Z,999.91
2018-03-03T06:13:13.720Z,999.92
2018-03-03T06:14:13.765Z,999.92
2018-03-03T06:15:13.731Z,999.94
2018-03-03T06:16:13.725Z,999.91
2018-03-03T06:17:13.726Z,999.93
2018-03-03T06:18:13.735Z,999.93
2018-03-03T06:19:13.747Z,999.94
2018-03-03T06:20:13.745Z,999.92
2018-03-03T06:21:13.745Z,999.92
2018-03-03T06:22:13.748Z,999.9
2018-03-03T06:23:13.770Z,999.98
2018-03-03T06:24:13.749Z,999.95
2018-03-03T06:25:13.752Z,999.96
2018-03-03T06:26:13.757Z,999.96
2018-03-03T06:27:13.759Z,999.92
2018-03-03T06:28:13.776Z,999.99
2018-03-03T06:29:13.775Z,999.96
2018-03-03T06:30:13.849Z,999.99
2018-03-03T06:31:13.766Z,999.97
2018-03-03T06:32:13.777Z,999.94
2018-03-03T06:33:13.778Z,999.95
2018-03-03T06:34:13.813Z,999.94
2018-03-03T06:35:13.790Z,999.92
2018-03-03T06:36:13.803Z,999.92
2018-03-03T06:37:13.796Z,999.95
2018-03-03T06:38:13.803Z,999.94
2018-03-03T06:39:13.814Z,1000
2018-03-03T06:40:13.830Z,1000
2018-03-03T06:41:13.824Z,999.99
2018-03-03T06:42:13.817Z,1000.01
2018-03-03T06:44:20.046Z,1000.03
2018-03-03T06:45:13.817Z,1000.04
2018-03-03T06:46:13.906Z,1000.08
2018-03-03T06:47:13.827Z,1000.05
2018-03-03T06:48:13.819Z,1000.08
2018-03-03T06:49:13.828Z,1000.06
2018-03-03T06:50:13.841Z,1000.01
2018-03-03T06:51:13.851Z,999.99
2018-03-03T06:52:13.840Z,999.91
2018-03-03T06:53:13.841Z,999.88
2018-03-03T06:54:13.842Z,999.86
2018-03-03T06:55:13.840Z,999.84
2018-03-03T06:56:13.878Z,999.82
2018-03-03T06:57:13.857Z,999.84
2018-03-03T06:58:13.849Z,999.8
2018-03-03T06:59:13.855Z,999.81
2018-03-03T07:00:13.906Z,999.81
2018-03-03T07:01:13.869Z,999.81
2018-03-03T07:02:13.879Z,999.79
2018-03-03T07:03:13.891Z,999.84
2018-03-03T07:04:13.866Z,999.88
2018-03-03T07:05:13.859Z,999.87
2018-03-03T07:06:13.868Z,999.88
2018-03-03T07:07:13.868Z,999.91
2018-03-03T07:08:13.874Z,999.93
2018-03-03T07:09:13.883Z,999.93
2018-03-03T07:10:14.207Z,999.97
2018-03-03T07:11:13.897Z,999.98
2018-03-03T07:12:13.899Z,1000.02
2018-03-03T07:13:13.911Z,999.97
2018-03-03T07:14:13.906Z,1000.03
2018-03-03T07:15:13.909Z,1000.05
2018-03-03T07:16:13.912Z,1000.01
2018-03-03T07:17:13.956Z,1000.02
2018-03-03T07:18:13.923Z,1000.05
2018-03-03T07:19:13.934Z,1000.06
2018-03-03T07:20:13.980Z,1000.06
2018-03-03T07:21:14.007Z,1000.07
2018-03-03T07:22:13.961Z,1000.06
2018-03-03T07:23:13.949Z,1000.09
2018-03-03T07:24:13.948Z,1000.12
2018-03-03T07:25:13.990Z,1000.1
2018-03-03T07:26:13.941Z,1000.08
2018-03-03T07:27:13.951Z,1000.08
2018-03-03T07:28:13.952Z,1000.12
2018-03-03T07:29:13.962Z,1000.1
2018-03-03T07:30:13.958Z,1000.08
2018-03-03T07:31:13.950Z,1000.1
2018-03-03T07:32:13.971Z,1000.09
2018-03-03T07:33:13.978Z,1000.03
2018-03-03T07:34:13.987Z,1000.06
2018-03-03T07:35:14.045Z,1000.02
2018-03-03T07:36:13.978Z,1000.04
2018-03-03T07:37:13.988Z,1000.01
2018-03-03T07:38:13.992Z,1000.01
2018-03-03T07:39:14.000Z,1000.02
2018-03-03T07:40:13.987Z,1000
2018-03-03T07:41:13.989Z,1000.01
2018-03-03T07:42:14.005Z,999.99
2018-03-03T07:43:14.054Z,1000
2018-03-03T07:44:14.001Z,1000
2018-03-03T07:45:14.021Z,1000.03
2018-03-03T07:46:14.026Z,1000.02
2018-03-03T07:47:14.010Z,1000.06
2018-03-03T07:48:14.020Z,1000.05
2018-03-03T07:49:14.025Z,1000.04
2018-03-03T07:50:14.029Z,999.98
2018-03-03T07:51:14.034Z,1000.06
2018-03-03T07:52:14.124Z,1000.07
2018-03-03T07:53:14.049Z,1000.09
2018-03-03T07:54:14.054Z,1000.05
2018-03-03T07:55:14.097Z,1000.06
2018-03-03T07:56:14.055Z,1000.07
2018-03-03T07:57:14.069Z,1000.05
2018-03-03T07:58:14.063Z,1000.08
2018-03-03T07:59:14.073Z,1000.08
2018-03-03T08:00:14.115Z,1000.12
2018-03-03T08:01:14.086Z,1000.06
2018-03-03T08:02:14.086Z,1000.11
2018-03-03T08:03:14.082Z,1000.07
2018-03-03T08:04:14.093Z,1000.1
2018-03-03T08:05:14.123Z,1000.06
2018-03-03T08:06:14.096Z,1000.04
2018-03-03T08:07:14.106Z,1000.03
2018-03-03T08:08:14.126Z,1000.04
2018-03-03T08:09:14.114Z,1000.05
2018-03-03T08:10:14.109Z,1000.07
2018-03-03T08:11:14.130Z,1000.02
2018-03-03T08:12:14.123Z,1000.02
2018-03-03T08:13:14.114Z,1000.01
2018-03-03T08:14:14.119Z,999.98
2018-03-03T08:15:14.122Z,1000.02
2018-03-03T08:16:14.161Z,1000.02
2018-03-03T08:17:14.131Z,1000.03
2018-03-03T08:19:14.152Z,1000.05
2018-03-03T08:20:14.145Z,999.98
2018-03-03T08:21:14.158Z,1000
2018-03-03T08:22:14.157Z,1000.04
2018-03-03T08:23:14.158Z,1000.08
2018-03-03T08:24:14.153Z,1000.03
2018-03-03T08:25:14.184Z,1000.08
2018-03-03T08:26:14.185Z,1000.07
2018-03-03T08:27:14.167Z,1000.1
2018-03-03T08:28:14.164Z,1000.05
2018-03-03T08:29:14.178Z,1000.04
2018-03-03T08:30:14.178Z,1000.02
2018-03-03T08:31:14.174Z,1000.03
2018-03-03T08:32:14.190Z,1000.01
2018-03-03T08:33:14.186Z,1000.03
2018-03-03T08:34:14.181Z,999.99
2018-03-03T08:35:14.193Z,1000.04
2018-03-03T08:36:14.192Z,999.99
2018-03-03T08:37:14.192Z,1000.02
2018-03-03T08:38:14.188Z,999.99
2018-03-03T08:39:14.195Z,999.99
2018-03-03T08:40:14.195Z,999.99
2018-03-03T08:41:14.190Z,999.93
2018-03-03T08:42:14.215Z,999.93
2018-03-03T08:43:14.195Z,999.89
2018-03-03T08:46:14.286Z,999.82
2018-03-03T08:47:14.212Z,999.88
2018-03-03T08:48:14.225Z,999.88
2018-03-03T08:49:14.517Z,999.81
2018-03-03T08:51:20.522Z,999.81
2018-03-03T08:52:14.237Z,999.78
2018-03-03T08:53:14.248Z,999.77
2018-03-03T08:54:14.260Z,999.79
2018-03-03T08:55:14.237Z,999.82
2018-03-03T08:56:14.247Z,999.74
2018-03-03T08:57:14.313Z,999.75
2018-03-03T08:58:14.251Z,999.72
2018-03-03T08:59:14.283Z,999.75
2018-03-03T09:00:14.258Z,999.74
2018-03-03T09:01:14.295Z,999.71
2018-03-03T09:02:14.285Z,999.72
2018-03-03T09:03:14.267Z,999.72
2018-03-03T09:04:14.276Z,999.68
2018-03-03T09:05:14.314Z,999.72
2018-03-03T09:06:14.386Z,999.76
2018-03-03T09:07:14.270Z,999.72
2018-03-03T09:08:14.267Z,999.78
2018-03-03T09:09:14.275Z,999.8
2018-03-03T09:10:14.282Z,999.82
2018-03-03T09:11:14.297Z,999.81
2018-03-03T09:12:14.313Z,999.77
2018-03-03T09:13:14.288Z,999.78
2018-03-03T09:14:14.308Z,999.77
2018-03-03T09:15:14.299Z,999.76
2018-03-03T09:16:14.321Z,999.76
2018-03-03T09:17:14.312Z,999.7
2018-03-03T09:18:14.320Z,999.68
2018-03-03T09:19:14.319Z,999.71
2018-03-03T09:20:14.329Z,999.69
2018-03-03T09:21:14.340Z,999.7
2018-03-03T09:22:14.331Z,999.69
2018-03-03T09:23:14.334Z,999.69
2018-03-03T09:24:14.367Z,999.64
2018-03-03T09:25:14.360Z,999.64
2018-03-03T09:26:14.349Z,999.66
2018-03-03T09:27:14.350Z,999.7
2018-03-03T09:28:14.351Z,999.69
2018-03-03T09:29:14.345Z,999.69
2018-03-03T09:30:14.352Z,999.72
2018-03-03T09:31:14.351Z,999.71
2018-03-03T09:32:14.361Z,999.7
2018-03-03T09:33:14.351Z,999.74
2018-03-03T09:34:14.363Z,999.7
2018-03-03T09:35:14.364Z,999.73
2018-03-03T09:36:15.150Z,999.72
2018-03-03T09:37:14.366Z,999.73
2018-03-03T09:38:14.389Z,999.69
2018-03-03T09:39:14.407Z,999.66
2018-03-03T09:40:14.401Z,999.72
2018-03-03T09:41:14.377Z,999.69
2018-03-03T09:42:14.401Z,999.64
2018-03-03T09:43:14.377Z,999.61
2018-03-03T09:44:14.481Z,999.65
2018-03-03T09:45:14.393Z,999.65
2018-03-03T09:46:14.548Z,999.63
2018-03-03T09:47:14.432Z,999.63
2018-03-03T09:48:14.407Z,999.67
2018-03-03T09:49:14.435Z,999.61
2018-03-03T09:50:14.410Z,999.59
2018-03-03T09:51:14.413Z,999.61
2018-03-03T09:52:14.417Z,999.56
2018-03-03T09:53:14.537Z,999.61
2018-03-03T09:54:14.416Z,999.56
2018-03-03T09:55:14.437Z,999.6
2018-03-03T09:56:14.443Z,999.57
2018-03-03T09:57:14.435Z,999.59
2018-03-03T09:58:14.436Z,999.56
2018-03-03T09:59:14.440Z,999.56
2018-03-03T10:00:14.444Z,999.57
2018-03-03T10:01:14.451Z,999.58
2018-03-03T10:02:14.485Z,999.56
2018-03-03T10:03:14.456Z,999.56
2018-03-03T10:04:14.461Z,999.52
2018-03-03T10:05:14.461Z,999.51
2018-03-03T10:06:14.470Z,999.53
2018-03-03T10:07:14.492Z,999.5
2018-03-03T10:08:14.490Z,999.46
2018-03-03T10:09:14.474Z,999.45
2018-03-03T10:10:14.469Z,999.42
2018-03-03T10:11:14.475Z,999.41
2018-03-03T10:12:14.499Z,999.38
2018-03-03T10:13:14.475Z,999.38
2018-03-03T10:14:14.485Z,999.32
2018-03-03T10:15:14.568Z,999.35
2018-03-03T10:16:14.577Z,999.32
2018-03-03T10:17:14.570Z,999.32
2018-03-03T10:18:14.503Z,999.3
2018-03-03T10:19:14.507Z,999.33
2018-03-03T10:20:14.511Z,999.32
2018-03-03T10:21:14.512Z,999.32
2018-03-03T10:22:14.529Z,999.34
2018-03-03T10:23:14.521Z,999.32
2018-03-03T10:24:14.532Z,999.32
2018-03-03T10:25:14.688Z,999.29
2018-03-03T10:26:14.558Z,999.31
2018-03-03T10:27:14.663Z,999.33
2018-03-03T10:28:14.581Z,999.29
2018-03-03T10:29:14.545Z,999.26
2018-03-03T10:30:14.560Z,999.28
2018-03-03T10:31:14.586Z,999.25
2018-03-03T10:32:14.570Z,999.27
2018-03-03T10:33:14.560Z,999.27
2018-03-03T10:34:14.568Z,999.22
2018-03-03T10:35:14.590Z,999.23
2018-03-03T10:36:14.605Z,999.25
2018-03-03T10:38:14.638Z,999.28
2018-03-03T10:39:14.589Z,999.23
2018-03-03T10:40:14.587Z,999.26
2018-03-03T10:41:14.603Z,999.23
2018-03-03T10:42:14.595Z,999.2
2018-03-03T10:43:14.857Z,999.21
2018-03-03T10:44:21.588Z,999.19
2018-03-03T10:45:14.597Z,999.17
2018-03-03T10:47:20.856Z,999.22
2018-03-03T10:48:14.622Z,999.15
2018-03-03T10:49:14.620Z,999.13
2018-03-03T10:50:14.625Z,999.13
2018-03-03T10:51:14.624Z,999.11
2018-03-03T10:52:14.632Z,999.13
2018-03-03T10:53:14.636Z,999.07
2018-03-03T10:54:14.660Z,999.1
2018-03-03T10:55:14.650Z,999.12
2018-03-03T10:58:14.759Z,999.13
2018-03-03T10:59:14.649Z,999.1
2018-03-03T11:00:14.694Z,999.12
2018-03-03T11:01:14.659Z,999.09
2018-03-03T11:02:14.663Z,999.13
2018-03-03T11:03:14.671Z,999.1
2018-03-03T11:04:14.666Z,999.13
2018-03-03T11:05:14.703Z,999.11
2018-03-03T11:06:14.694Z,999.12
2018-03-03T11:07:14.683Z,999.11
2018-03-03T11:08:14.715Z,999.09
2018-03-03T11:09:14.703Z,999.1
2018-03-03T11:10:14.698Z,999.06
2018-03-03T11:11:14.910Z,999.08
2018-03-03T11:12:14.781Z,999.05
2018-03-03T11:13:14.726Z,999.06
2018-03-03T11:14:14.718Z,999.03
2018-03-03T11:15:14.741Z,999.01
2018-03-03T11:16:14.731Z,999.01
2018-03-03T11:17:14.728Z,998.97
2018-03-03T11:18:14.751Z,998.95
2018-03-03T11:19:14.744Z,998.93
2018-03-03T11:20:14.762Z,998.91
2018-03-03T11:21:14.741Z,998.92
2018-03-03T11:22:14.742Z,998.85
2018-03-03T11:23:14.764Z,998.82
2018-03-03T11:24:14.745Z,998.85
2018-03-03T11:25:14.748Z,998.82
2018-03-03T11:26:14.953Z,998.81
2018-03-03T11:28:27.062Z,998.74
2018-03-03T11:29:14.753Z,998.77
2018-03-03T11:30:14.748Z,998.8
2018-03-03T11:31:14.748Z,998.75
2018-03-03T11:32:14.769Z,998.74
2018-03-03T11:33:14.782Z,998.72
2018-03-03T11:34:14.770Z,998.69
2018-03-03T11:35:14.774Z,998.73
2018-03-03T11:36:14.785Z,998.71
2018-03-03T11:37:14.790Z,998.74
2018-03-03T11:38:14.782Z,998.73
2018-03-03T11:39:14.797Z,998.73
2018-03-03T11:40:14.806Z,998.73
2018-03-03T11:41:14.798Z,998.71
2018-03-03T11:42:14.785Z,998.69
2018-03-03T11:43:14.789Z,998.71
2018-03-03T11:44:14.785Z,998.73
2018-03-03T11:45:14.794Z,998.72
2018-03-03T11:46:14.925Z,998.73
2018-03-03T11:47:14.813Z,998.75
2018-03-03T11:48:14.793Z,998.78
2018-03-03T11:49:14.805Z,998.75
2018-03-03T11:50:14.817Z,998.75
2018-03-03T11:51:14.800Z,998.73
2018-03-03T11:52:14.805Z,998.76
2018-03-03T11:53:14.815Z,998.78
2018-03-03T11:54:14.817Z,998.77
2018-03-03T11:55:14.824Z,998.76
2018-03-03T11:56:14.835Z,998.76
2018-03-03T11:57:14.836Z,998.72
2018-03-03T11:58:14.884Z,998.75
2018-03-03T11:59:14.831Z,998.72
2018-03-03T12:00:14.837Z,998.73
2018-03-03T12:01:14.842Z,998.74
2018-03-03T12:02:14.848Z,998.69
2018-03-03T12:03:14.855Z,998.67
2018-03-03T12:04:14.861Z,998.68
2018-03-03T12:05:14.871Z,998.69
2018-03-03T12:06:14.867Z,998.69
2018-03-03T12:07:14.884Z,998.69
2018-03-03T12:08:14.877Z,998.71
2018-03-03T12:09:14.912Z,998.73
2018-03-03T12:10:14.886Z,998.71
2018-03-03T12:11:14.879Z,998.74
2018-03-03T12:12:14.877Z,998.72
2018-03-03T12:13:14.925Z,998.7
2018-03-03T12:14:14.894Z,998.72
2018-03-03T12:15:14.881Z,998.74
2018-03-03T12:16:14.888Z,998.76
2018-03-03T12:17:14.892Z,998.7
2018-03-03T12:18:14.880Z,998.7
2018-03-03T12:19:14.898Z,998.73
2018-03-03T12:20:14.899Z,998.73
2018-03-03T12:21:14.887Z,998.72
2018-03-03T12:22:14.946Z,998.73
2018-03-03T12:23:14.896Z,998.7
2018-03-03T12:24:14.904Z,998.67
2018-03-03T12:25:14.902Z,998.69
2018-03-03T12:26:14.909Z,998.67
2018-03-03T12:27:14.926Z,998.69
2018-03-03T12:28:14.925Z,998.68
2018-03-03T12:29:14.918Z,998.66
2018-03-03T12:30:14.926Z,998.66
2018-03-03T12:31:14.931Z,998.68
2018-03-03T12:32:14.933Z,998.66
2018-03-03T12:33:14.939Z,998.66
2018-03-03T12:34:14.947Z,998.68
2018-03-03T12:35:14.953Z,998.67